Global Endeavor — 3EOJ9 — position and weather

sailwx.info

Track history (hours):
 
Tides and Currents Weather Stations Pressure Air Temp Water Temp Dewpoint Dewpoint Depression Visibility Wind Speed Wind Dir Waves Ship Positions

Global Endeavor

Last reported at 2014-Nov-26 05:20 UTC. Time now 2014-Nov-26 06:24 UTC.
Position N 35°22' E 139°51'.

Length 175 m; draft 6.3 m.

Type: Cargo ship. MMSI: 356619000.

Date/timePositionNaut miles runAvg speedWind from/ knotsBaromVisibWave heightAir tempDewpointWater temp
2014-Nov-26 05:20N 35°22' E 139°51'0 0.0
2014-Nov-26 04:32N 35°22' E 139°51'0 0.0
2014-Nov-26 03:32N 35°22' E 139°51'0 0.0
2014-Nov-26 02:32N 35°22' E 139°51'0 0.0
2014-Nov-26 01:32N 35°22' E 139°51'0 0.0
2014-Nov-26 00:32N 35°22' E 139°51'0 0.0
2014-Nov-25 23:32N 35°22' E 139°51'0 0.0
2014-Nov-25 22:32N 35°22' E 139°51'0 0.0
2014-Nov-25 21:32N 35°22' E 139°51'0 0.0
2014-Nov-25 20:32N 35°22' E 139°51'0 0.0
2014-Nov-25 19:32N 35°22' E 139°51'0 0.0
2014-Nov-25 18:32N 35°22' E 139°51'0 0.0
2014-Nov-25 17:32N 35°22' E 139°51'0 0.0
2014-Nov-25 16:32N 35°22' E 139°51'0 0.0
2014-Nov-25 15:32N 35°22' E 139°51'0 0.0
2014-Nov-25 14:32N 35°22' E 139°51'0 0.0
2014-Nov-25 13:29N 35°22' E 139°51'0 0.0
2014-Nov-25 12:32N 35°22' E 139°51'0 0.0
2014-Nov-25 11:32N 35°22' E 139°51'0 0.0
2014-Nov-25 10:29N 35°22' E 139°51'0 0.0
2014-Nov-25 09:32N 35°22' E 139°51'0 0.0
2014-Nov-25 08:32N 35°22' E 139°51'0 0.0
2014-Nov-25 07:32N 35°22' E 139°51'0 0.0
2014-Nov-25 06:32N 35°22' E 139°51'0 0.0
2014-Nov-25 05:32N 35°22' E 139°51'0 0.0
2014-Nov-25 04:32N 35°22' E 139°51'0 0.0
2014-Nov-25 03:32N 35°22' E 139°51'0 0.0
2014-Nov-25 02:32N 35°22' E 139°51'0 0.0
2014-Nov-25 01:32N 35°22' E 139°51'0 0.0
2014-Nov-25 00:32N 35°22' E 139°51'0 0.0
2014-Nov-24 23:32N 35°22' E 139°51'0 0.0
2014-Nov-24 22:32N 35°22' E 139°51'0 0.0
2014-Nov-24 21:32N 35°22' E 139°51'0 0.0
2014-Nov-24 20:32N 35°22' E 139°51'0 0.0
2014-Nov-24 19:32N 35°22' E 139°51'0 0.0
2014-Nov-24 18:32N 35°22' E 139°51'0 0.0
2014-Nov-24 17:29N 35°22' E 139°51'0 0.0
2014-Nov-24 16:32N 35°22' E 139°51'0 0.0
2014-Nov-24 15:32N 35°22' E 139°51'0 0.0
2014-Nov-24 14:32N 35°22' E 139°51'0 0.0
2014-Nov-24 13:32N 35°22' E 139°51'0 0.0
2014-Nov-24 12:32N 35°22' E 139°51'0 0.0
2014-Nov-24 11:32N 35°22' E 139°51'0 0.0
2014-Nov-24 10:32N 35°22' E 139°51'0 0.0
2014-Nov-24 09:32N 35°22' E 139°51'0 0.0
2014-Nov-24 08:32N 35°22' E 139°51'0 0.0
2014-Nov-24 07:29N 35°22' E 139°51'0 0.0
2014-Nov-24 06:32N 35°22' E 139°51'0 0.4
2014-Nov-24 05:33N 35°22' E 139°50'6 6.1
2014-Nov-24 04:33N 35°18' E 139°45'10 9.5
2014-Nov-24 03:33N 35°08' E 139°46'248 9.8
2014-Nov-23 02:16N 34°01' E 134°57'912.2
2014-Nov-23 01:30N 34°11' E 134°58'1111.5
2014-Nov-23 00:33N 34°21' E 135°00'1413.8
2014-Nov-22 23:33N 34°31' E 135°12'1211.9
2014-Nov-22 22:33N 34°36' E 135°25'1 0.2
2014-Nov-22 15:23N 34°35' E 135°27'0 0.0
2014-Nov-22 01:23N 34°35' E 135°27'0 0.0
2014-Nov-21 18:20N 34°35' E 135°27'0 0.0
2014-Nov-20 04:33N 34°35' E 135°27'4 3.7
2014-Nov-20 03:33N 34°35' E 135°22'0 0.0
2014-Nov-20 02:29N 34°35' E 135°22'0 0.0
2014-Nov-20 01:29N 34°35' E 135°22'0 0.0
2014-Nov-20 00:29N 34°35' E 135°22'0 0.1
2014-Nov-19 23:29N 34°35' E 135°22'0 0.0
2014-Nov-19 22:29N 34°35' E 135°22'0 0.1
2014-Nov-19 21:23N 34°35' E 135°22'0 0.0
2014-Nov-19 20:23N 34°35' E 135°22'0 0.1
2014-Nov-19 19:23N 34°35' E 135°22'0 0.0
2014-Nov-19 18:11N 34°35' E 135°22'0 0.1
2014-Nov-19 17:29N 34°35' E 135°22'0 0.0
2014-Nov-19 16:29N 34°35' E 135°22'0 0.0
2014-Nov-19 15:11N 34°35' E 135°22'0 0.1
2014-Nov-19 14:29N 34°35' E 135°22'0 0.0
2014-Nov-19 13:23N 34°35' E 135°22'0 0.1
2014-Nov-19 12:23N 34°35' E 135°22'0 0.1
2014-Nov-19 11:29N 34°35' E 135°22'0 0.0
2014-Nov-19 10:05N 34°35' E 135°22'0 0.0
2014-Nov-19 09:29N 34°35' E 135°22'0 0.0
2014-Nov-19 08:17N 34°35' E 135°22'0 0.0
2014-Nov-19 07:11N 34°35' E 135°22'0 0.0
2014-Nov-19 06:29N 34°35' E 135°22'0 0.0
2014-Nov-19 05:29N 34°35' E 135°22'0 0.1
2014-Nov-19 04:29N 34°35' E 135°22'2 2.1
2014-Nov-19 03:33N 34°35' E 135°20'1313.0
2014-Nov-19 02:33N 34°26' E 135°08'1313.0
2014-Nov-19 01:32N 34°15' E 134°59'1010.4
2014-Nov-19 00:33N 34°05' E 134°60'1311.3
2014-Nov-18 23:25N 33°52' E 134°59'  
Track history (hours):
 
Tides and Currents Weather Stations Pressure Air Temp Water Temp Dewpoint Dewpoint Depression Visibility Wind Speed Wind Dir Waves Ship Positions

Global Endeavor

Last reported at 2014-Nov-26 05:20 UTC. Time now 2014-Nov-26 06:24 UTC.
Position N 35°22' E 139°51'.

Length 175 m; draft 6.3 m.

Type: Cargo ship. MMSI: 356619000.

Date/timePositionNaut miles runAvg speedWind from/ knotsBaromVisibWave heightAir tempDewpointWater temp
2014-Nov-26 05:20N 35°22' E 139°51'0 0.0
2014-Nov-26 04:32N 35°22' E 139°51'0 0.0
2014-Nov-26 03:32N 35°22' E 139°51'0 0.0
2014-Nov-26 02:32N 35°22' E 139°51'0 0.0
2014-Nov-26 01:32N 35°22' E 139°51'0 0.0
2014-Nov-26 00:32N 35°22' E 139°51'0 0.0
2014-Nov-25 23:32N 35°22' E 139°51'0 0.0
2014-Nov-25 22:32N 35°22' E 139°51'0 0.0
2014-Nov-25 21:32N 35°22' E 139°51'0 0.0
2014-Nov-25 20:32N 35°22' E 139°51'0 0.0
2014-Nov-25 19:32N 35°22' E 139°51'0 0.0
2014-Nov-25 18:32N 35°22' E 139°51'0 0.0
2014-Nov-25 17:32N 35°22' E 139°51'0 0.0
2014-Nov-25 16:32N 35°22' E 139°51'0 0.0
2014-Nov-25 15:32N 35°22' E 139°51'0 0.0
2014-Nov-25 14:32N 35°22' E 139°51'0 0.0
2014-Nov-25 13:29N 35°22' E 139°51'0 0.0
2014-Nov-25 12:32N 35°22' E 139°51'0 0.0
2014-Nov-25 11:32N 35°22' E 139°51'0 0.0
2014-Nov-25 10:29N 35°22' E 139°51'0 0.0
2014-Nov-25 09:32N 35°22' E 139°51'0 0.0
2014-Nov-25 08:32N 35°22' E 139°51'0 0.0
2014-Nov-25 07:32N 35°22' E 139°51'0 0.0
2014-Nov-25 06:32N 35°22' E 139°51'0 0.0
2014-Nov-25 05:32N 35°22' E 139°51'0 0.0
2014-Nov-25 04:32N 35°22' E 139°51'0 0.0
2014-Nov-25 03:32N 35°22' E 139°51'0 0.0
2014-Nov-25 02:32N 35°22' E 139°51'0 0.0
2014-Nov-25 01:32N 35°22' E 139°51'0 0.0
2014-Nov-25 00:32N 35°22' E 139°51'0 0.0
2014-Nov-24 23:32N 35°22' E 139°51'0 0.0
2014-Nov-24 22:32N 35°22' E 139°51'0 0.0
2014-Nov-24 21:32N 35°22' E 139°51'0 0.0
2014-Nov-24 20:32N 35°22' E 139°51'0 0.0
2014-Nov-24 19:32N 35°22' E 139°51'0 0.0
2014-Nov-24 18:32N 35°22' E 139°51'0 0.0
2014-Nov-24 17:29N 35°22' E 139°51'0 0.0
2014-Nov-24 16:32N 35°22' E 139°51'0 0.0
2014-Nov-24 15:32N 35°22' E 139°51'0 0.0
2014-Nov-24 14:32N 35°22' E 139°51'0 0.0
2014-Nov-24 13:32N 35°22' E 139°51'0 0.0
2014-Nov-24 12:32N 35°22' E 139°51'0 0.0
2014-Nov-24 11:32N 35°22' E 139°51'0 0.0
2014-Nov-24 10:32N 35°22' E 139°51'0 0.0
2014-Nov-24 09:32N 35°22' E 139°51'0 0.0
2014-Nov-24 08:32N 35°22' E 139°51'0 0.0
2014-Nov-24 07:29N 35°22' E 139°51'0 0.0
2014-Nov-24 06:32N 35°22' E 139°51'0 0.4
2014-Nov-24 05:33N 35°22' E 139°50'6 6.1
2014-Nov-24 04:33N 35°18' E 139°45'10 9.5
2014-Nov-24 03:33N 35°08' E 139°46'248 9.8
2014-Nov-23 02:16N 34°01' E 134°57'912.2
2014-Nov-23 01:30N 34°11' E 134°58'1111.5
2014-Nov-23 00:33N 34°21' E 135°00'1413.8
2014-Nov-22 23:33N 34°31' E 135°12'1211.9
2014-Nov-22 22:33N 34°36' E 135°25'1 0.2
2014-Nov-22 15:23N 34°35' E 135°27'0 0.0
2014-Nov-22 01:23N 34°35' E 135°27'0 0.0
2014-Nov-21 18:20N 34°35' E 135°27'0 0.0
2014-Nov-20 04:33N 34°35' E 135°27'4 3.7
2014-Nov-20 03:33N 34°35' E 135°22'0 0.0
2014-Nov-20 02:29N 34°35' E 135°22'0 0.0
2014-Nov-20 01:29N 34°35' E 135°22'0 0.0
2014-Nov-20 00:29N 34°35' E 135°22'0 0.1
2014-Nov-19 23:29N 34°35' E 135°22'0 0.0
2014-Nov-19 22:29N 34°35' E 135°22'0 0.1
2014-Nov-19 21:23N 34°35' E 135°22'0 0.0
2014-Nov-19 20:23N 34°35' E 135°22'0 0.1
2014-Nov-19 19:23N 34°35' E 135°22'0 0.0
2014-Nov-19 18:11N 34°35' E 135°22'0 0.1
2014-Nov-19 17:29N 34°35' E 135°22'0 0.0
2014-Nov-19 16:29N 34°35' E 135°22'0 0.0
2014-Nov-19 15:11N 34°35' E 135°22'0 0.1
2014-Nov-19 14:29N 34°35' E 135°22'0 0.0
2014-Nov-19 13:23N 34°35' E 135°22'0 0.1
2014-Nov-19 12:23N 34°35' E 135°22'0 0.1
2014-Nov-19 11:29N 34°35' E 135°22'0 0.0
2014-Nov-19 10:05N 34°35' E 135°22'0 0.0
2014-Nov-19 09:29N 34°35' E 135°22'0 0.0
2014-Nov-19 08:17N 34°35' E 135°22'0 0.0
2014-Nov-19 07:11N 34°35' E 135°22'0 0.0
2014-Nov-19 06:29N 34°35' E 135°22'0 0.0
2014-Nov-19 05:29N 34°35' E 135°22'0 0.1
2014-Nov-19 04:29N 34°35' E 135°22'2 2.1
2014-Nov-19 03:33N 34°35' E 135°20'1313.0
2014-Nov-19 02:33N 34°26' E 135°08'1313.0
2014-Nov-19 01:32N 34°15' E 134°59'1010.4
2014-Nov-19 00:33N 34°05' E 134°60'1311.3
2014-Nov-18 23:25N 33°52' E 134°59'  

Dump ship's entire track history